Map

Track Data

SID SEASON NUMBER BASIN SUBBASIN NAME ISO_TIME NATURE LAT LON WMO_WIND WMO_PRES WMO_AGENCY TRACK_TYPE DIST2LAND LANDFALL IFLAG USA_AGENCY USA_ATCF_ID USA_LAT USA_LON USA_RECORD USA_STATUS USA_WIND USA_PRES USA_SSHS USA_R34_NE USA_R34_SE USA_R34_SW USA_R34_NW USA_R50_NE USA_R50_SE USA_R50_SW USA_R50_NW USA_R64_NE USA_R64_SE USA_R64_SW USA_R64_NW USA_POCI USA_ROCI USA_RMW USA_EYE TOKYO_LAT TOKYO_LON TOKYO_GRADE TOKYO_WIND TOKYO_PRES TOKYO_R50_DIR TOKYO_R50_LONG TOKYO_R50_SHORT TOKYO_R30_DIR TOKYO_R30_LONG TOKYO_R30_SHORT TOKYO_LAND CMA_LAT CMA_LON CMA_CAT CMA_WIND CMA_PRES HKO_LAT HKO_LON HKO_CAT HKO_WIND HKO_PRES NEWDELHI_LAT NEWDELHI_LON NEWDELHI_GRADE NEWDELHI_WIND NEWDELHI_PRES NEWDELHI_CI NEWDELHI_DP NEWDELHI_POCI REUNION_LAT REUNION_LON REUNION_TYPE REUNION_WIND REUNION_PRES REUNION_TNUM REUNION_CI REUNION_RMW REUNION_R34_NE REUNION_R34_SE REUNION_R34_SW REUNION_R34_NW REUNION_R50_NE REUNION_R50_SE REUNION_R50_SW REUNION_R50_NW REUNION_R64_NE REUNION_R64_SE REUNION_R64_SW REUNION_R64_NW BOM_LAT BOM_LON BOM_TYPE BOM_WIND BOM_PRES BOM_TNUM BOM_CI BOM_RMW BOM_R34_NE BOM_R34_SE BOM_R34_SW BOM_R34_NW BOM_R50_NE BOM_R50_SE BOM_R50_SW BOM_R50_NW BOM_R64_NE BOM_R64_SE BOM_R64_SW BOM_R64_NW BOM_ROCI BOM_POCI BOM_EYE BOM_POS_METHOD BOM_PRES_METHOD NADI_LAT NADI_LON NADI_CAT NADI_WIND NADI_PRES WELLINGTON_LAT WELLINGTON_LON WELLINGTON_WIND WELLINGTON_PRES DS824_LAT DS824_LON DS824_STAGE DS824_WIND DS824_PRES TD9636_LAT TD9636_LON TD9636_STAGE TD9636_WIND TD9636_PRES TD9635_LAT TD9635_LON TD9635_WIND TD9635_PRES TD9635_ROCI NEUMANN_LAT NEUMANN_LON NEUMANN_CLASS NEUMANN_WIND NEUMANN_PRES MLC_LAT MLC_LON MLC_CLASS MLC_WIND MLC_PRES USA_GUST BOM_GUST BOM_GUST_PER REUNION_GUST REUNION_GUST_PER USA_SEAHGT USA_SEARAD_NE USA_SEARAD_SE USA_SEARAD_SW USA_SEARAD_NW STORM_SPEED STORM_DIR
1979093S08156 1979 26 SP EA STAN 1979-04-03 00:00:00 TS -7.80000 156.000 main 106 106 O________OO___ jtwc_sh SH241979 -7.80000 156.000 -1 -7.80000 156.000 TC -7.80000 156.000 1 4 196
1979093S08156 1979 26 SP EA STAN 1979-04-03 03:00:00 TS -8.00158 155.945 main 125 125 P________PP___ SH241979 -8.00000 155.950 -1 -8.00000 155.950 TC -8.00472 155.936 1 4 195
1979093S08156 1979 26 SP EA STAN 1979-04-03 06:00:00 TS -8.20252 155.893 main 143 143 O________OP___ jtwc_sh SH241979 -8.20000 155.900 -1 -8.20000 155.900 TC -8.20755 155.878 1 4 194
1979093S08156 1979 26 SP EA STAN 1979-04-03 09:00:00 TS -8.40220 155.843 main 154 154 P________PP___ SH241979 -8.40000 155.850 -1 -8.40000 155.850 TC -8.40661 155.830 1 4 193
1979093S08156 1979 26 SP EA STAN 1979-04-03 12:00:00 TS -8.60000 155.800 main 157 157 O________OO___ jtwc_sh SH241979 -8.60000 155.800 -1 -8.60000 155.800 TC -8.60000 155.800 1 4 191
1979093S08156 1979 26 SP EA STAN 1979-04-03 15:00:00 TS -8.79591 155.762 main 163 163 P________PP___ SH241979 -8.80000 155.750 -1 -8.80000 155.750 TC -8.78773 155.786 1 4 191
1979093S08156 1979 26 SP EA STAN 1979-04-03 18:00:00 TS -8.99245 155.722 main 182 182 O________OP___ jtwc_sh SH241979 -9.00000 155.700 -1 -9.00000 155.700 TC -8.97736 155.767 1 4 191
1979093S08156 1979 26 SP EA STAN 1979-04-03 21:00:00 TS -9.18776 155.686 main 193 193 P________PP___ SH241979 -9.19248 155.672 -1 -9.19248 155.672 TC -9.17831 155.714 1 4 196
1979093S08156 1979 26 SP EA STAN 1979-04-04 00:00:00 TS -9.40000 155.600 main 214 214 O________OO___ jtwc_sh SH241979 -9.40000 155.600 -1 -9.40000 155.600 TC -9.40000 155.600 1 5 209
1979093S08156 1979 26 SP EA STAN 1979-04-04 03:00:00 TS -9.64657 155.428 main 245 245 P________PP___ SH241979 -9.63497 155.445 -1 -9.63497 155.445 TC -9.66976 155.394 1 7 219
1979093S08156 1979 26 SP EA STAN 1979-04-04 06:00:00 TS -9.91920 155.175 main 283 283 O________OP___ jtwc_sh SH241979 -9.90000 155.200 -1 -9.90000 155.200 TC -9.95761 155.125 1 8 225
1979093S08156 1979 26 SP EA STAN 1979-04-04 09:00:00 TS -10.2189 154.850 main 338 338 P________PP___ SH241979 -10.2075 154.865 -1 -10.2075 154.865 TC -10.2416 154.819 1 9 229
1979093S08156 1979 26 SP EA STAN 1979-04-04 12:00:00 TS -10.5000 154.500 main 385 382 O________OO___ jtwc_sh SH241979 -10.5000 154.500 -1 -10.5000 154.500 TC -10.5000 154.500 1 8 232
1979093S08156 1979 26 SP EA STAN 1979-04-04 15:00:00 TS -10.7229 154.201 main 382 351 P________PP___ SH241979 -10.7224 154.192 -1 -10.7224 154.192 TC -10.7239 154.219 1 7 235
1979093S08156 1979 26 SP EA STAN 1979-04-04 18:00:00 TS -10.9058 153.910 main 351 321 O________OP___ jtwc_sh SH241979 -10.9000 153.900 -1 -10.9000 153.900 TC -10.9173 153.930 1 7 239
1979093S08156 1979 26 SP EA STAN 1979-04-04 21:00:00 TS -11.0740 153.614 main 321 291 P________PP___ SH241979 -11.0724 153.607 -1 -11.0724 153.607 TC -11.0770 153.626 1 7 244
1979093S08156 1979 26 SP EA STAN 1979-04-05 00:00:00 TS -11.2000 153.300 main 291 263 O________OO___ jtwc_sh SH241979 -11.2000 153.300 -1 -11.2000 153.300 TC -11.2000 153.300 1 7 253
1979093S08156 1979 26 SP EA STAN 1979-04-05 03:00:00 TS -11.2733 152.956 main 263 221 P________PP___ SH241979 -11.2650 152.965 -1 -11.2650 152.965 TC -11.2900 152.938 1 7 261
1979093S08156 1979 26 SP EA STAN 1979-04-05 06:00:00 TS -11.3150 152.586 main 221 186 O________OP___ jtwc_sh SH241979 -11.3000 152.600 -1 -11.3000 152.600 TC -11.3451 152.557 1 8 264
1979093S08156 1979 26 SP EA STAN 1979-04-05 09:00:00 TS -11.3592 152.186 main 186 149 P________PP___ SH241979 -11.3500 152.193 -1 -11.3500 152.193 TC -11.3775 152.173 1 8 264
1979093S08156 1979 26 SP EA STAN 1979-04-05 12:00:00 TS -11.4000 151.800 main 149 125 O________OO___ jtwc_sh SH241979 -11.4000 151.800 -1 -11.4000 151.800 TC -11.4000 151.800 1 7 262
1979093S08156 1979 26 SP EA STAN 1979-04-05 15:00:00 TS -11.4502 151.487 main 133 114 P________PP___ SH241979 -11.4574 151.493 -1 -11.4574 151.493 TC -11.4359 151.477 1 6 262
1979093S08156 1979 26 SP EA STAN 1979-04-05 18:00:00 TS -11.4882 151.188 main 114 103 O________OP___ jtwc_sh SH241979 -11.5000 151.200 -1 -11.5000 151.200 TC -11.4645 151.165 1 6 265
1979093S08156 1979 26 SP EA STAN 1979-04-05 21:00:00 TS -11.5003 150.859 main 103 90 P________PP___ SH241979 -11.5075 150.865 -1 -11.5075 150.865 TC -11.4859 150.846 1 7 269
1979093S08156 1979 26 SP EA STAN 1979-04-06 00:00:00 TS -11.5000 150.500 main 90 89 O________OO___ jtwc_sh SH241979 -11.5000 150.500 -1 -11.5000 150.500 TC -11.5000 150.500 1 7 270
1979093S08156 1979 26 SP EA STAN 1979-04-06 03:00:00 TS -11.5024 150.106 main 90 90 P________PP___ SH241979 -11.4999 150.115 -1 -11.4999 150.115 TC -11.5073 150.087 1 8 273
1979093S08156 1979 26 SP EA STAN 1979-04-06 05:00:00 TS -11.4717 149.848 25 1002 bom main 99 89 P_____O__PP___ SH241979 -11.5000 149.842 -1 -11.1000 150.100 20 25 1002 2.00000 -11.5000 149.842 TC -11.5082 149.797 1 45 45 7 287
1979093S08156 1979 26 SP EA STAN 1979-04-06 06:00:00 TS -11.4025 149.781 main 89 89 O_____P__OP_O_ jtwc_sh SH241979 -11.5000 149.700 -1 -11.1044 149.998 20 25 1002 -11.5000 149.700 TC -11.5077 149.650 1 -11.1000 150.300 TC 25 1002 6 286
1979093S08156 1979 26 SP EA STAN 1979-04-06 09:00:00 TS -11.3572 149.431 main 104 95 P_____P__PP_P_ SH241979 -11.5001 149.235 -1 -11.1099 149.695 20 25 1003 -11.5001 149.235 TC -11.5042 149.212 1 -11.1101 149.995 TC 22 1003 7 279
1979093S08156 1979 26 SP EA STAN 1979-04-06 11:00:00 TS -11.3203 149.231 25 1004 bom main 106 106 P_____O__PP_P_ SH241979 -11.5000 148.936 -1 -11.1000 149.500 20 25 1004 2.00000 -11.5000 148.936 TC -11.5013 148.933 1 -11.1068 149.797 TC 20 1003 45 45 6 282
1979093S08156 1979 26 SP EA STAN 1979-04-06 12:00:00 TS -11.2982 149.151 main 106 106 O_____P__OO_O_ jtwc_sh SH241979 -11.5000 148.800 -1 -11.0890 149.405 20 25 1003 -11.5000 148.800 TC -11.5000 148.800 1 -11.1000 149.700 TC 20 1004 6 277
1979093S08156 1979 26 SP EA STAN 1979-04-06 15:00:00 TS -11.2748 148.849 main 114 114 P_____P__PP_P_ SH241979 -11.4999 148.485 -1 -11.0387 149.116 20 25 1002 -11.4999 148.485 TC -11.4954 148.471 1 -11.0574 149.415 TC 22 1003 6 275
1979093S08156 1979 26 SP EA STAN 1979-04-06 17:00:00 TS -11.2552 148.648 25 1002 bom main 120 109 P_____O__PP_P_ SH241979 -11.4999 148.298 -1 -11.0000 148.900 20 25 1002 1.50000 -11.4999 148.298 TC -11.4927 148.266 1 -11.0192 149.211 TC 24 1002 45 45 6 275
1979093S08156 1979 26 SP EA STAN 1979-04-06 18:00:00 TS -11.2458 148.541 main 112 112 O_____P__OP_O_ jtwc_sh SH241979 -11.5000 148.200 -1 -10.9833 148.783 20 25 1002 -11.5000 148.200 TC -11.4918 148.165 1 -11.0000 149.100 TC 25 1002 7 274
1979093S08156 1979 26 SP EA STAN 1979-04-06 21:00:00 TS -11.2209 148.183 main 114 112 P_____P__PP_P_ SH241979 -11.4999 147.872 -1 -10.9333 148.393 20 25 1003 -11.4999 147.872 TC -11.4923 147.852 1 -10.9499 148.730 TC 22 1003 7 274
1979093S08156 1979 26 SP EA STAN 1979-04-06 23:00:00 TS -11.2049 147.916 25 1005 bom main 112 112 P_____O__PP_P_ SH241979 -11.5000 147.631 -1 -10.9000 148.100 20 25 1005 1.50000 -11.5000 147.631 TC -11.4964 147.624 1 -10.9166 148.450 TC 20 1004 45 45 8 273
1979093S08156 1979 26 SP EA STAN 1979-04-07 00:00:00 TS -11.1968 147.775 main 114 114 O_____P__OO_O_ jtwc_sh SH241979 -11.5000 147.500 -1 -10.8807 147.947 20 25 1004 -11.5000 147.500 TC -11.5000 147.500 1 -10.9000 148.300 TC 20 1005 9 274
1979093S08156 1979 26 SP EA STAN 1979-04-07 03:00:00 TS -11.1689 147.315 main 130 130 P_____P__PP_P_ SH241979 -11.4925 147.072 -1 -10.8254 147.452 20 25 1003 -11.4925 147.072 TC -11.5180 147.056 1 -10.8425 147.822 TC 22 1003 9 273
1979093S08156 1979 26 SP EA STAN 1979-04-07 05:00:00 TS -11.1574 146.985 25 1002 bom main 145 145 P_____O__PP_P_ SH241979 -11.4943 146.761 -1 -10.8000 147.100 20 25 1002 1.50000 -11.4943 146.761 TC -11.5340 146.736 1 -10.8109 147.478 TC 24 1002 45 45 10 271
1979093S08156 1979 26 SP EA STAN 1979-04-07 06:00:00 TS -11.1562 146.816 main 157 157 O_____P__OP_O_ jtwc_sh SH241979 -11.5000 146.600 -1 -10.7942 146.925 20 25 1002 -11.5000 146.600 TC -11.5428 146.573 1 -10.8000 147.300 TC 25 1002 10 269
1979093S08156 1979 26 SP EA STAN 1979-04-07 09:00:00 TS -11.1751 146.296 main 196 196 P_____P__PP_P_ SH241979 -11.5500 146.093 -1 -10.7945 146.380 20 25 1003 -11.5500 146.093 TC -11.5711 146.078 1 -10.7924 146.765 TC 22 1003 10 268
1979093S08156 1979 26 SP EA STAN 1979-04-07 11:00:00 TS -11.1930 145.942 25 1004 bom main 231 231 P_____O__PP_P_ SH241979 -11.5864 145.758 -1 -10.8000 146.000 20 25 1004 1.50000 -11.5864 145.758 TC -11.5905 145.756 1 -10.7973 146.392 TC 20 1003 45 45 10 267
1979093S08156 1979 26 SP EA STAN 1979-04-07 12:00:00 TS -11.2000 145.768 main 237 237 O_____P__OO_O_ jtwc_sh SH241979 -11.6000 145.600 -1 -10.8000 145.806 20 25 1003 -11.6000 145.600 TC -11.6000 145.600 1 -10.8000 146.200 TC 20 1004 10 269
1979093S08156 1979 26 SP EA STAN 1979-04-07 15:00:00 TS -11.2047 145.258 main 245 205 P_____P__PP_P_ SH241979 -11.5999 145.185 -1 -10.7999 145.205 20 25 1002 -11.5999 145.185 TC -11.6288 145.166 1 -10.8000 145.600 TC 22 1003 10 270
1979093S08156 1979 26 SP EA STAN 1979-04-07 17:00:00 TS -11.2069 144.924 25 1002 bom main 205 196 P_____O__PP_P_ SH241979 -11.5969 144.928 -1 -10.8000 144.800 20 25 1002 1.50000 -11.5969 144.928 TC -11.6480 144.890 1 -10.8000 145.197 TC 24 1002 45 45 10 269
1979093S08156 1979 26 SP EA STAN 1979-04-07 18:00:00 TS -11.2095 144.758 main 196 149 O_____P__OP_O_ jtwc_sh SH241979 -11.6000 144.800 -1 -10.8000 144.592 20 25 1002 -11.6000 144.800 TC -11.6573 144.755 1 -10.8000 145.000 TC 25 1002 10 268
1979093S08156 1979 26 SP EA STAN 1979-04-07 21:00:00 TS -11.2303 144.255 main 149 111 P_____P__PP_P_ SH241979 -11.6500 144.393 -1 -10.8000 143.976 20 25 1003 -11.6500 144.393 TC -11.6820 144.366 1 -10.7999 144.435 TC 25 1002 10 268
1979093S08156 1979 26 SP EA STAN 1979-04-07 23:00:00 TS -11.2446 143.938 25 1004 bom main 111 100 P_____O__PP_P_ SH241979 -11.6864 144.128 -1 -10.8000 143.600 20 25 1004 1.50000 -11.6864 144.128 TC -11.6950 144.120 1 -10.8000 144.075 TC 25 1002 45 45 9 268
1979093S08156 1979 26 SP EA STAN 1979-04-08 00:00:00 TS -11.2500 143.788 main 100 55 O_____P__OO_O_ jtwc_sh SH241979 -11.7000 144.000 -1 -10.7999 143.430 20 25 1003 -11.7000 144.000 TC -11.7000 144.000 1 -10.8000 143.900 TC 25 1003 8 269
1979093S08156 1979 26 SP EA STAN 1979-04-08 03:00:00 TS -11.2550 143.362 main 55 24 P_____P__PP_P_ SH241979 -11.7075 143.635 -1 -10.7999 142.975 20 25 1003 -11.7075 143.635 TC -11.7151 143.649 1 -10.8001 143.348 TC 25 1003 8 270
1979093S08156 1979 26 SP EA STAN 1979-04-08 05:00:00 TS -11.2544 143.111 25 1003 bom main 24 15 P_____O__PP_P_ SH241979 -11.7026 143.408 -1 -10.8000 142.700 20 25 1003 2.00000 -11.7026 143.408 TC -11.7209 143.428 1 -10.8000 143.030 TC 25 1003 45 45 7 270
1979093S08156 1979 26 SP EA STAN 1979-04-08 06:00:00 TS -11.2537 142.993 main 15 0 O_____P__OP_O_ jtwc_sh SH241979 -11.7000 143.300 -1 -10.8000 142.540 20 25 1002 -11.7000 143.300 TC -11.7222 143.320 1 -10.8000 142.900 TC 25 1003 6 270
1979093S08156 1979 26 SP EA STAN 1979-04-08 08:00:00 TS -11.2553 142.790 25 1001 bom main 0 0 P_____O__PP_P_ SH241979 -11.7054 143.092 -1 -10.8000 142.300 20 25 1001 2.00000 -11.7054 143.092 TC -11.7210 143.109 1 -10.7999 142.698 TC 25 1003 45 45 6 270
1979093S08156 1979 26 SP EA STAN 1979-04-08 09:00:00 TS -11.2555 142.713 main 0 0 P_____P__PP_P_ SH241979 -11.7074 142.993 -1 -10.8000 142.267 20 25 1001 -11.7074 142.993 TC -11.7183 143.006 1 -10.7999 142.625 TC 25 1003 4 271
1979093S08156 1979 26 SP EA STAN 1979-04-08 11:00:00 TS -11.2532 142.592 25 1003 bom main 0 0 P_____O__PP_P_ SH241979 -11.7057 142.797 -1 -10.8000 142.300 20 25 1003 2.00000 -11.7057 142.797 TC -11.7079 142.801 1 -10.8000 142.528 TC 25 1003 45 45 3 272
1979093S08156 1979 26 SP EA STAN 1979-04-08 12:00:00 TS -11.2500 142.536 main 0 0 O_____P__OO_O_ jtwc_sh SH241979 -11.7000 142.700 -1 -10.8000 142.317 20 25 1003 -11.7000 142.700 TC -11.7000 142.700 1 -10.8000 142.500 TC 25 1003 3 277
1979093S08156 1979 26 SP EA STAN 1979-04-08 15:00:00 TS -11.2285 142.390 main 0 0 P_____P__PP_P_ SH241979 -11.6575 142.400 -1 -10.8000 142.361 20 25 1003 -11.6575 142.400 TC -11.6561 142.389 1 -10.7999 142.515 TC 25 1003 3 279
1979093S08156 1979 26 SP EA STAN 1979-04-08 17:00:00 TS -11.2096 142.275 25 1003 bom main 0 0 P_____O__PP_P_ SH241979 -11.6193 142.200 -1 -10.8000 142.300 20 25 1003 2.00000 -11.6193 142.200 TC -11.6192 142.185 1 -10.8000 142.524 TC 25 1003 45 45 4 279
1979093S08156 1979 26 SP EA STAN 1979-04-08 18:00:00 TS -11.2000 142.200 main 0 0 O_____P__OP_O_ jtwc_sh SH241979 -11.6000 142.100 -1 -10.8000 142.215 20 25 1003 -11.6000 142.100 TC -11.5999 142.085 1 -10.8000 142.500 TC 25 1003 5 276
1979093S08156 1979 26 SP EA STAN 1979-04-08 20:00:00 TS -11.1807 142.014 25 1003 bom main 21 21 P_____O__PP_P_ SH241979 -11.5612 141.900 -1 -10.8000 142.000 20 25 1003 2.00000 -11.5612 141.900 TC -11.5616 141.887 1 -10.8000 142.353 TC 23 1003 45 45 6 276
1979093S08156 1979 26 SP EA STAN 1979-04-08 21:00:00 TS -11.1714 141.915 main 31 31 P_____P__PP_P_ SH241979 -11.5425 141.800 -1 -10.8000 141.902 20 25 1003 -11.5425 141.800 TC -11.5437 141.789 1 -10.8000 142.253 TC 22 1003 6 275
1979093S08156 1979 26 SP EA STAN 1979-04-08 23:00:00 TS -11.1557 141.706 25 1005 bom main 49 49 P_____O__PP_P_ SH241979 -11.5109 141.600 -1 -10.8000 141.700 20 25 1005 2.00000 -11.5109 141.600 TC -11.5124 141.595 1 -10.8000 142.021 TC 20 1003 45 45 6 274
1979093S08156 1979 26 SP EA STAN 1979-04-09 00:00:00 TS -11.1503 141.599 main 59 55 O_____P__OO_O_ jtwc_sh SH241979 -11.5000 141.500 -1 -10.8021 141.591 20 25 1004 -11.5000 141.500 TC -11.5000 141.500 1 -10.8000 141.900 TC 20 1004 6 271
1979093S08156 1979 26 SP EA STAN 1979-04-09 03:00:00 TS -11.1502 141.277 main 90 90 P_____P__PP_P_ SH241979 -11.4925 141.193 -1 -10.8074 141.241 20 25 1003 -11.4925 141.193 TC -11.4936 141.222 1 -10.8075 141.558 TC 22 1003 6 270
1979093S08156 1979 26 SP EA STAN 1979-04-09 05:00:00 TS -11.1505 141.061 25 1003 bom main 111 120 P_____O__PP_P_ SH241979 -11.4974 140.994 -1 -10.8000 141.000 20 25 1003 2.00000 -11.4974 140.994 TC -11.4971 141.040 1 -10.8057 141.319 TC 24 1003 45 45 6 270
1979093S08156 1979 26 SP EA STAN 1979-04-09 06:00:00 TS -11.1477 140.956 main 120 120 O_____P__OP_O_ jtwc_sh SH241979 -11.5000 140.900 -1 -10.7864 140.883 20 25 1003 -11.5000 140.900 TC -11.4998 140.950 1 -10.8000 141.200 TC 25 1003 6 274
1979093S08156 1979 26 SP EA STAN 1979-04-09 09:00:00 TS -11.1253 140.652 main 153 153 P_____P__PP_P_ SH241979 -11.5074 140.650 -1 -10.7308 140.533 20 25 1003 -11.5074 140.650 TC -11.5061 140.678 1 -10.7500 140.850 TC 22 1003 6 275
1979093S08156 1979 26 SP EA STAN 1979-04-09 11:00:00 TS -11.1071 140.450 25 1004 bom main 175 186 P_____O__PP_P_ SH241979 -11.5057 140.486 -1 -10.7000 140.300 20 25 1004 2.00000 -11.5057 140.486 TC -11.5042 140.494 1 -10.7136 140.617 TC 20 1003 45 45 6 275
1979093S08156 1979 26 SP EA STAN 1979-04-09 12:00:00 TS -11.0990 140.347 main 196 196 O_____P__OO_O_ jtwc_sh SH241979 -11.5000 140.400 -1 -10.6943 140.183 20 25 1003 -11.5000 140.400 TC -11.5000 140.400 1 -10.7000 140.500 TC 20 1004 6 274
1979093S08156 1979 26 SP EA STAN 1979-04-09 15:00:00 TS -11.0758 140.028 main 222 222 P_____P__PP_P_ SH241979 -11.4575 140.107 -1 -10.6945 139.833 20 25 1003 -11.4575 140.107 TC -11.4601 140.127 1 -10.6925 140.143 TC 22 1003 6 274
1979093S08156 1979 26 SP EA STAN 1979-04-09 17:00:00 TS -11.0598 139.812 25 1003 bom main 240 240 P_____O__PP_P_ SH241979 -11.4193 139.903 -1 -10.7000 139.600 20 25 1003 2.00000 -11.4193 139.903 TC -11.4257 139.941 1 -10.6974 139.911 TC 24 1003 45 45 6 274
1979093S08156 1979 26 SP EA STAN 1979-04-09 18:00:00 TS -11.0516 139.704 main 250 250 O_____P__OP_O_ jtwc_sh SH241979 -11.4000 139.800 -1 -10.7026 139.481 20 25 1003 -11.4000 139.800 TC -11.4072 139.845 1 -10.7000 139.800 TC 25 1003 6 274
1979093S08156 1979 26 SP EA STAN 1979-04-09 21:00:00 TS -11.0289 139.390 main 274 274 P_____P__PP_P_ SH241979 -11.3499 139.515 -1 -10.7079 139.125 20 25 1003 -11.3499 139.515 TC -11.3507 139.540 1 -10.7074 139.500 TC 25 1003 6 275
1979093S08156 1979 26 SP EA STAN 1979-04-09 23:00:00 TS -11.0100 139.176 25 1004 bom main 280 271 P_____O__PP_P_ SH241979 -11.3166 139.311 -1 -10.7000 138.900 20 25 1004 2.00000 -11.3166 139.311 TC -11.3157 139.318 1 -10.7057 139.303 TC 25 1003 45 45 6 275
1979093S08156 1979 26 SP EA STAN 1979-04-10 00:00:00 TS -10.9982 139.065 main 271 235 O_____P__OO_O_ jtwc_sh SH241979 -11.3000 139.200 -1 -10.6890 138.792 20 25 1003 -11.3000 139.200 TC -11.3000 139.200 1 -10.7000 139.200 TC 25 1003 7 277
1979093S08156 1979 26 SP EA STAN 1979-04-10 03:00:00 TS -10.9525 138.710 main 235 226 P_____P__PP_P_ SH241979 -11.2425 138.822 -1 -10.6387 138.487 20 25 1000 -11.2425 138.822 TC -11.2761 138.803 1 -10.6575 138.842 TC 27 1001 7 278
1979093S08156 1979 26 SP EA STAN 1979-04-10 05:00:00 TS -10.9207 138.468 25 999 bom main 226 218 P_____O__PP_P_ SH241979 -11.2109 138.544 -1 -10.6000 138.300 20 25 999 2.00000 -11.2109 138.544 TC -11.2638 138.518 1 -10.6193 138.608 TC 29 999 45 45 7 277
1979093S08156 1979 26 SP EA STAN 1979-04-10 06:00:00 TS -10.9064 138.347 main 211 190 O_____P__OP_O_ jtwc_sh SH241979 -11.2000 138.400 -1 -10.5807 138.208 20 25 999 -11.2000 138.400 TC -11.2577 138.373 1 -10.6000 138.500 TC 30 999 7 276
1979093S08156 1979 26 SP EA STAN 1979-04-10 09:00:00 TS -10.8743 137.991 main 190 179 P_____P__PP_P_ SH241979 -11.2000 137.950 -1 -10.5254 137.953 20 25 1000 -11.2000 137.950 TC -11.2354 137.931 1 -10.5425 138.228 TC 27 1000 7 275
1979093S08156 1979 26 SP EA STAN 1979-04-10 11:00:00 TS -10.8570 137.764 25 1001 bom main 179 174 P_____O__PP_P_ SH241979 -11.2031 137.647 -1 -10.5000 137.800 20 25 1001 2.00000 -11.2031 137.647 TC -11.2138 137.641 1 -10.5109 138.072 TC 25 1000 45 45 7 274
1979093S08156 1979 26 SP EA STAN 1979-04-10 12:00:00 TS -10.8490 137.655 main 184 166 O_____P__OO_O_ jtwc_sh SH241979 -11.2000 137.500 -1 -10.4943 137.728 20 25 1000 -11.2000 137.500 TC -11.2000 137.500 1 -10.5000 138.000 TC 25 1001 6 274
1979093S08156 1979 26 SP EA STAN 1979-04-10 15:00:00 TS -10.8295 137.342 main 160 149 P_____P__PP_P_ SH241979 -11.1649 137.085 -1 -10.4945 137.528 20 25 1000 -11.1649 137.085 TC -11.1679 137.070 1 -10.4925 137.793 TC 27 1000 6 274
1979093S08156 1979 26 SP EA STAN 1979-04-10 17:00:00 TS -10.8137 137.145 25 1000 bom main 149 149 P_____O__PP_P_ SH241979 -11.1250 136.825 -1 -10.5000 137.400 20 25 1000 2.00000 -11.1250 136.825 TC -11.1373 136.793 1 -10.4974 137.664 TC 29 1000 45 45 6 275
1979093S08156 1979 26 SP EA STAN 1979-04-10 18:00:00 TS -10.8029 137.048 main 145 138 O_____P__OP_O_ jtwc_sh SH241979 -11.1000 136.700 -1 -10.5000 137.331 20 25 999 -11.1000 136.700 TC -11.1176 136.660 1 -10.5000 137.600 TC 30 1000 6 277
1979093S08156 1979 26 SP EA STAN 1979-04-10 21:00:00 TS -10.7656 136.759 main 138 136 P_____P__PP_P_ SH241979 -11.0300 136.328 -1 -10.5000 137.125 20 28 999 -11.0300 136.328 TC -11.0335 136.295 1 -10.5000 137.393 TC 30 999 6 280
1979093S08156 1979 26 SP EA STAN 1979-04-10 23:00:00 TS -10.7262 136.585 30 999 bom main 146 145 P_____O__PP_P_ SH241979 -10.9531 136.103 -1 -10.5000 137.000 20 30 999 2.50000 -10.9531 136.103 TC -10.9510 136.089 1 -10.5000 137.261 TC 30 999 45 45 5 285
1979093S08156 1979 26 SP EA STAN 1979-04-11 00:00:00 TS -10.7000 136.506 main 145 145 O_____P__OO_O_ jtwc_sh SH241979 -10.9000 136.000 -1 -10.5000 136.936 20 30 998 -10.9000 136.000 TC -10.9000 136.000 2 -10.5000 137.200 TC 30 999 5 295
1979093S08156 1979 26 SP EA STAN 1979-04-11 03:00:00 TS -10.5834 136.280 main 158 158 P_____P__PP_P_ SH241979 -10.6725 135.697 -1 -10.5000 136.771 20 30 997 -10.6725 135.697 TC -10.6553 135.722 2 -10.5000 137.020 TC 32 997 5 302
1979093S08156 1979 26 SP EA STAN 1979-04-11 05:00:00 TS -10.4914 136.171 30 996 bom main 171 171 P_____O__PP_P_ SH241979 -10.4912 135.549 -1 -10.5000 136.700 20 30 996 2.50000 -10.4912 135.549 TC -10.4659 135.579 2 -10.5000 136.930 TC 34 996 45 45 4 314
1979093S08156 1979 26 SP EA STAN 1979-04-11 06:00:00 TS -10.4449 136.135 main 184 184 O_____P__OP_O_ jtwc_sh SH241979 -10.4000 135.500 -1 -10.5000 136.683 20 30 996 -10.4000 135.500 TC -10.3695 135.525 2 -10.5000 136.900 TC 35 996 3 336
1979093S08156 1979 26 SP EA STAN 1979-04-11 09:00:00 TS -10.3040 136.084 main 195 195 P_____P__PP_P_ SH241979 -10.1124 135.410 -1 -10.5000 136.684 20 30 998 -10.1124 135.410 TC -10.0990 135.441 2 -10.5000 136.878 TC 32 998 3 0
1979093S08156 1979 26 SP EA STAN 1979-04-11 11:00:00 TS -10.2274 136.107 30 1000 bom main 206 206 P_____O__PP_P_ SH241979 -9.95473 135.447 -1 -10.5000 136.700 20 30 1000 2.50000 -9.95473 135.447 TC -9.95491 135.462 2 -10.5000 136.892 TC 30 999 45 45 2 22
1979093S08156 1979 26 SP EA STAN 1979-04-11 12:00:00 TS -10.2000 136.133 main 206 202 O_____P__OO_O_ jtwc_sh SH241979 -9.90000 135.500 -1 -10.5000 136.700 20 30 999 -9.90000 135.500 TC -9.90000 135.500 2 -10.5000 136.900 TC 30 1000 3 72
1979093S08156 1979 26 SP EA STAN 1979-04-11 15:00:00 TS -10.1754 136.275 main 202 201 P_____P__PP_P_ SH241979 -9.85504 135.790 -1 -10.5000 136.700 20 30 999 -9.85504 135.790 TC -9.84236 135.772 2 -10.5000 136.900 TC 30 999 3 87
1979093S08156 1979 26 SP EA STAN 1979-04-11 17:00:00 TS -10.1851 136.408 30 999 bom main 201 201 P_____O__PP_P_ SH241979 -9.88119 136.059 -1 -10.5000 136.700 20 30 999 2.50000 -9.88119 136.059 TC -9.84814 136.032 2 -10.5000 136.900 TC 30 999 45 45 4 95
1979093S08156 1979 26 SP EA STAN 1979-04-11 18:00:00 TS -10.1930 136.479 main 201 201 O_____P__OP_O_ jtwc_sh SH241979 -9.90000 136.200 -1 -10.4974 136.697 20 30 999 -9.90000 136.200 TC -9.86077 136.175 2 -10.5000 136.900 TC 30 999 4 96
1979093S08156 1979 26 SP EA STAN 1979-04-11 21:00:00 TS -10.2143 136.695 main 202 202 P_____P__PP_P_ SH241979 -9.94260 136.637 -1 -10.4921 136.692 20 30 999 -9.94260 136.637 TC -9.92369 136.616 2 -10.4925 136.893 TC 30 999 4 97
1979093S08156 1979 26 SP EA STAN 1979-04-11 23:00:00 TS -10.2375 136.828 30 1000 bom main 204 204 P_____O__PP_P_ SH241979 -9.98076 136.898 -1 -10.5000 136.700 20 30 1000 2.50000 -9.98076 136.898 TC -9.97498 136.884 2 -10.4943 136.894 TC 30 999 45 45 4 102
1979093S08156 1979 26 SP EA STAN 1979-04-12 00:00:00 TS -10.2523 136.885 main 195 195 O_____P__OO_O_ jtwc_sh SH241979 -10.0000 137.000 -1 -10.5136 136.708 20 30 999 -10.0000 137.000 TC -10.0000 137.000 2 -10.5000 136.900 TC 30 999 2 113
1979093S08156 1979 26 SP EA STAN 1979-04-12 03:00:00 TS -10.3019 136.981 main 198 198 P_____P__PP_P_ SH241979 -10.0499 137.138 -1 -10.5691 136.753 20 30 999 -10.0499 137.138 TC -10.0425 137.189 2 -10.5500 136.935 TC 30 999 2 121
1979093S08156 1979 26 SP EA STAN 1979-04-12 05:00:00 TS -10.3357 137.030 30 999 bom main 198 198 P_____O__PP_P_ SH241979 -10.0833 137.177 -1 -10.6000 136.800 20 30 999 2.50000 -10.0833 137.177 TC -10.0750 137.275 2 -10.5864 136.975 TC 30 999 45 45 2 127
1979093S08156 1979 26 SP EA STAN 1979-04-12 06:00:00 TS -10.3492 137.056 main 201 190 O_____P__OP_O_ jtwc_sh SH241979 -10.1000 137.200 -1 -10.6031 136.828 20 30 999 -10.1000 137.200 TC -10.0922 137.310 2 -10.6000 137.000 TC 30 999 2 106
1979093S08156 1979 26 SP EA STAN 1979-04-12 09:00:00 TS -10.3739 137.165 main 194 194 P_____P__PP_P_ SH241979 -10.1500 137.342 -1 -10.5975 136.928 20 30 999 -10.1500 137.342 TC -10.1457 137.401 2 -10.6000 137.093 TC 30 999 2 103
1979093S08156 1979 26 SP EA STAN 1979-04-12 11:00:00 TS -10.3904 137.247 30 1000 bom main 194 199 P_____O__PP_P_ SH241979 -10.1833 137.447 -1 -10.6000 137.000 20 30 1000 2.50000 -10.1833 137.447 TC -10.1820 137.464 2 -10.5969 137.164 TC 30 999 45 45 2 104
1979093S08156 1979 26 SP EA STAN 1979-04-12 12:00:00 TS -10.4018 137.288 main 199 199 O_____P__OO_O_ jtwc_sh SH241979 -10.2000 137.500 -1 -10.6109 137.028 20 30 1000 -10.2000 137.500 TC -10.2000 137.500 2 -10.6000 137.200 TC 30 1000 3 110
1979093S08156 1979 26 SP EA STAN 1979-04-12 15:00:00 TS -10.4480 137.413 main 204 194 P_____P__PP_P_ SH241979 -10.2500 137.643 -1 -10.6612 137.118 20 30 1000 -10.2500 137.643 TC -10.2419 137.657 2 -10.6425 137.285 TC 30 1000 3 111
1979093S08156 1979 26 SP EA STAN 1979-04-12 17:00:00 TS -10.4830 137.509 30 1000 bom main 200 200 P_____O__PP_P_ SH241979 -10.2833 137.744 -1 -10.7000 137.200 20 30 1000 2.50000 -10.2833 137.744 TC -10.2701 137.769 2 -10.6807 137.355 TC 30 1000 45 45 3 109
1979093S08156 1979 26 SP EA STAN 1979-04-12 18:00:00 TS -10.5003 137.562 main 206 206 O_____P__OP_O_ jtwc_sh SH241979 -10.3000 137.800 -1 -10.7167 137.247 20 30 1000 -10.3000 137.800 TC -10.2850 137.828 2 -10.7000 137.400 TC 30 1000 4 106
1979093S08156 1979 26 SP EA STAN 1979-04-12 21:00:00 TS -10.5479 137.743 main 213 209 P_____P__PP_P_ SH241979 -10.3425 137.993 -1 -10.7666 137.432 20 30 1000 -10.3425 137.993 TC -10.3356 138.010 2 -10.7500 137.563 TC 30 1000 4 105
1979093S08156 1979 26 SP EA STAN 1979-04-12 23:00:00 TS -10.5831 137.887 30 1000 bom main 214 214 P_____O__PP_P_ SH241979 -10.3776 138.131 -1 -10.8000 137.600 20 30 1000 2.50000 -10.3776 138.131 TC -10.3766 138.136 2 -10.7833 137.711 TC 30 1000 45 45 5 104
1979093S08156 1979 26 SP EA STAN 1979-04-13 00:00:00 TS -10.6023 137.966 main 219 219 O_____P__OO_O_ jtwc_sh SH241979 -10.4000 138.200 -1 -10.8140 137.697 20 30 999 -10.4000 138.200 TC -10.4000 138.200 2 -10.8000 137.800 TC 30 1000 5 104
1979093S08156 1979 26 SP EA STAN 1979-04-13 03:00:00 TS -10.6678 138.227 main 221 221 P_____P__PP_P_ SH241979 -10.4925 138.400 -1 -10.8588 138.043 20 33 997 -10.4925 138.400 TC -10.4855 138.377 2 -10.8425 138.120 TC 32 998 6 105
1979093S08156 1979 26 SP EA STAN 1979-04-13 05:00:00 TS -10.7214 138.418 35 996 bom main 235 235 P_____O__PP_P_ SH241979 -10.5640 138.533 -1 -10.9000 138.300 30 35 996 3.00000 -10.5640 138.533 TC -10.5506 138.499 2 -10.8776 138.370 TC 34 996 49 49 6 106
1979093S08156 1979 26 SP EA STAN 1979-04-13 06:00:00 TS -10.7512 138.516 main 234 234 O_____P__OP_O_ jtwc_sh SH241979 -10.6000 138.600 -1 -10.9224 138.433 30 35 996 -10.6000 138.600 TC -10.5848 138.563 2 -10.9000 138.500 TC 35 996 6 108
1979093S08156 1979 26 SP EA STAN 1979-04-13 09:00:00 TS -10.8515 138.821 main 251 251 P_____P__PP_P_ SH241979 -10.7000 138.800 -1 -11.0121 138.844 30 35 998 -10.7000 138.800 TC -10.6917 138.767 2 -10.9775 138.908 TC 32 998 6 110
1979093S08156 1979 26 SP EA STAN 1979-04-13 11:00:00 TS -10.9315 139.023 35 1000 bom main 268 268 P_____O__PP_P_ SH241979 -10.7667 138.933 -1 -11.1000 139.100 30 35 1000 3.00000 -10.7667 138.933 TC -10.7641 138.919 2 -11.0526 139.175 TC 30 999 49 49 6 113
1979093S08156 1979 26 SP EA STAN 1979-04-13 12:00:00 TS -10.9759 139.119 main 271 271 O_____P__OO_O_ jtwc_sh SH241979 -10.8000 139.000 -1 -11.1552 139.211 30 35 999 -10.8000 139.000 TC -10.8000 139.000 2 -11.1000 139.300 TC 30 1000 6 119
1979093S08156 1979 26 SP EA STAN 1979-04-13 15:00:00 TS -11.1146 139.361 main 279 264 P_____P__PP_P_ SH241979 -10.8999 139.170 -1 -11.3557 139.511 30 35 996 -10.8999 139.170 TC -10.8546 139.195 2 -11.2849 139.615 TC 35 997 6 121
1979093S08156 1979 26 SP EA STAN 1979-04-13 17:00:00 TS -11.2141 139.528 35 995 bom main 264 249 P_____O__PP_P_ SH241979 -10.9666 139.311 -1 -11.5000 139.700 30 35 995 3.00000 -10.9666 139.311 TC -10.8928 139.344 2 -11.4280 139.805 TC 38 995 49 49 6 121
1979093S08156 1979 26 SP EA STAN 1979-04-13 18:00:00 TS -11.2642 139.620 main 249 215 O_____P__OP_O_ jtwc_sh SH241979 -11.0000 139.400 -1 -11.5692 139.792 30 35 995 -11.0000 139.400 TC -10.9162 139.429 2 -11.5000 139.900 TC 40 995 7 116
1979093S08156 1979 26 SP EA STAN 1979-04-13 21:00:00 TS -11.4069 139.928 main 215 181 P_____P__PP_P_ SH241979 -11.0623 139.718 -1 -11.7745 140.076 30 35 996 -11.0623 139.718 TC -11.0198 139.749 2 -11.7074 140.178 TC 37 995 7 114
1979093S08156 1979 26 SP EA STAN 1979-04-13 23:00:00 TS -11.5148 140.186 35 997 bom main 181 166 P_____O__PP_P_ SH241979 -11.1380 140.016 -1 -11.9000 140.300 30 35 997 3.00000 -11.1380 140.016 TC -11.1293 140.032 2 -11.8390 140.383 TC 35 995 49 49 9 113
1979093S08156 1979 26 SP EA STAN 1979-04-14 00:00:00 TS -11.5765 140.337 main 166 107 O_____P__OO_O_ jtwc_sh SH241979 -11.2000 140.200 -1 -11.9590 140.423 30 35 996 -11.2000 140.200 TC -11.2000 140.200 2 -11.9000 140.500 TC 35 996 11 114
1979093S08156 1979 26 SP EA STAN 1979-04-14 03:00:00 TS -11.8062 140.858 main 97 48 P_____P__PP_P_ SH241979 -11.5051 140.890 -1 -12.1154 140.854 30 35 996 -11.5051 140.890 TC -11.5331 140.833 2 -12.0644 140.845 TC 35 996 12 113
1979093S08156 1979 26 SP EA STAN 1979-04-14 05:00:00 TS -11.9760 141.289 35 996 bom main 48 31 P_____O__PP_P_ SH241979 -11.7645 141.426 -1 -12.2000 141.200 30 35 996 3.00000 -11.7645 141.426 TC -11.7978 141.332 2 -12.1580 141.179 TC 35 996 49 49 14 111
1979093S08156 1979 26 SP EA STAN 1979-04-14 06:00:00 TS -12.0619 141.524 main 24 0 O_____P__OP_O_ jtwc_sh SH241979 -11.9000 141.700 -1 -12.2357 141.343 30 33 997 -11.9000 141.700 TC -11.9359 141.598 2 -12.2000 141.400 TC 35 996 16 109
1979093S08156 1979 26 SP EA STAN 1979-04-14 08:00:00 TS -12.2412 142.066 30 1000 bom main 0 0 P_____O__PP_P_ SH241979 -12.1858 142.225 -1 -12.3000 141.800 20 30 1000 -12.1858 142.225 TC -12.2120 142.154 2 -12.2856 141.963 TC 31 998 45 45 18 108
1979093S08156 1979 26 SP EA STAN 1979-04-14 09:00:00 TS -12.3301 142.388 main 0 0 P_____P__PP_P_ SH241979 -12.3298 142.492 -1 -12.3372 142.208 20 30 1000 -12.3298 142.492 TC -12.3455 142.439 2 -12.3226 142.295 TC 30 999 20 104
1979093S08156 1979 26 SP EA STAN 1979-04-14 11:00:00 TS -12.4893 143.083 30 1002 bom main 0 0 P_____O__PP_P_ SH241979 -12.5925 143.031 -1 -12.4000 143.200 20 30 1002 -12.5925 143.031 TC -12.5918 143.015 2 -12.3807 143.021 TC 26 1001 45 45 21 102
1979093S08156 1979 26 SP EA STAN 1979-04-14 12:00:00 TS -12.5518 143.421 main 0 0 O_____P__OO_O_ jtwc_sh SH241979 -12.7000 143.300 -1 -12.4110 143.629 20 30 1001 -12.7000 143.300 TC -12.7000 143.300 2 -12.4000 143.400 TC 25 1002 19 97
1979093S08156 1979 26 SP EA STAN 1979-04-14 15:00:00 TS -12.6437 144.387 main 103 103 P_____P__PP_P_ SH241979 -12.8873 144.100 -1 -12.3995 144.793 20 30 1000 -12.8873 144.100 TC -12.8885 144.046 2 -12.4002 144.565 TC 27 1001 19 95
1979093S08156 1979 26 SP EA STAN 1979-04-14 17:00:00 TS -12.6822 145.016 30 1000 bom main 164 175 P_____O__PP_P_ SH241979 -12.9630 144.634 -1 -12.4000 145.500 20 30 1000 2.50000 -12.9630 144.634 TC -12.9795 144.549 2 -12.3939 145.338 TC 29 1000 45 45 18 94
1979093S08156 1979 26 SP EA STAN 1979-04-14 18:00:00 TS -12.7069 145.326 main 196 196 O_____P__OP_O_ jtwc_sh SH241979 -13.0000 144.900 -1 -12.4216 145.850 20 30 1000 -13.0000 144.900 TC -13.0198 144.806 2 -12.4000 145.700 TC 30 1000 18 96
1979093S08156 1979 26 SP EA STAN 1979-04-14 21:00:00 TS -12.8006 146.214 main 249 249 P_____P__PP_P_ SH241979 -13.1269 145.663 -1 -12.5219 146.850 20 30 1001 -13.1269 145.663 TC -13.1412 145.612 2 -12.4022 146.683 TC 27 1000 17 97
1979093S08156 1979 26 SP EA STAN 1979-04-14 23:00:00 TS -12.8941 146.804 30 1002 bom main 282 289 P_____O__PP_P_ SH241979 -13.2325 146.205 -1 -12.6000 147.500 20 30 1002 2.50000 -13.2325 146.205 TC -13.2400 146.193 2 -12.4985 147.248 TC 25 1000 45 45 18 100
1979093S08156 1979 26 SP EA STAN 1979-04-15 00:00:00 TS -12.9555 147.106 main 295 295 O_____P__OO_O_ jtwc_sh SH241979 -13.3000 146.500 -1 -12.6332 147.839 20 29 1001 -13.3000 146.500 TC -13.3000 146.500 2 -12.6000 147.500 TC 25 1001 19 106
1979093S08156 1979 26 SP EA STAN 1979-04-15 03:00:00 TS -13.2321 148.044 main 335 335 P_____P__PP_P_ SH241979 -13.5773 147.498 -1 -12.7332 148.849 20 26 1000 -13.5773 147.498 TC -13.5863 147.537 2 -13.2188 148.070 TC 30 19 107
1979093S08156 1979 26 SP EA STAN 1979-04-15 05:00:00 TS -13.4407 148.694 25 1000 bom main 339 339 P_____O__PP_P_ SH241979 -13.7920 148.226 -1 -12.8000 149.500 20 25 1000 2.00000 -13.7920 148.226 TC -13.7999 148.275 2 -13.6938 148.459 TC 33 45 45 20 108
1979093S08156 1979 26 SP EA STAN 1979-04-15 06:00:00 TS -13.5403 149.029 main 339 336 O_____P__OP_O_ jtwc_sh SH241979 -13.9000 148.600 -1 -12.8332 149.819 20 25 1000 -13.9000 148.600 TC -13.9089 148.653 2 -13.9000 148.700 TC 35 21 107
1979093S08156 1979 26 SP EA STAN 1979-04-15 09:00:00 TS -13.8359 150.063 main 347 347 P_____P__PP_P_ SH241979 -14.2227 149.772 -1 -12.9331 150.735 20 25 1001 -14.2227 149.772 TC -14.2268 149.793 2 -14.2756 149.748 TC 35 21 106
1979093S08156 1979 26 SP EA STAN 1979-04-15 11:00:00 TS -14.0309 150.745 25 1002 bom main 370 383 P_____O__PP_P_ SH241979 -14.4172 150.540 -1 -13.0000 151.300 20 25 1002 1.50000 -14.4172 150.540 TC -14.4163 150.538 2 -14.4358 150.524 TC 35 45 45 20 111
1979093S08156 1979 26 SP EA STAN 1979-04-15 12:00:00 TS -14.2050 151.035 main 397 397 O_____P__OO_O_ jtwc_sh SH241979 -14.5000 150.900 -1 -13.0335 151.567 20 25 1002 -14.5000 150.900 TC -14.5000 150.900 2 -14.5000 150.900 TC 35 18 113
1979093S08156 1979 26 SP EA STAN 1979-04-15 15:00:00 TS -14.5083 151.889 main 455 455 P_____P__PP_P_ SH241979 -14.6790 151.823 -1 -13.1337 152.320 20 25 1002 -14.6790 151.823 TC -14.6830 151.822 2 -14.6793 151.873 TC 32 17 109
1979093S08156 1979 26 SP EA STAN 1979-04-15 17:00:00 TS -14.6746 152.449 25 1002 bom main 494 498 P_____O__PP_P_ SH241979 -14.7631 152.402 -1 -13.2000 152.800 20 25 1002 1.50000 -14.7631 152.402 TC -14.7777 152.414 2 -14.7632 152.491 TC 30 45 45 17 110
1979093S08156 1979 26 SP EA STAN 1979-04-15 18:00:00 TS -14.8046 152.728 main 517 517 O________OP_O_ jtwc_sh SH241979 -14.8000 152.700 -1 20 -14.8000 152.700 TC -14.8184 152.712 2 -14.8000 152.800 TC 30 18 102
1979093S08156 1979 26 SP EA STAN 1979-04-15 21:00:00 TS -14.9153 153.645 main 575 575 P________PP_P_ SH241979 -14.9139 153.625 -1 20 -14.9139 153.625 TC -14.9199 153.647 2 -14.9136 153.683 TC 30 19 96
1979093S08156 1979 26 SP EA STAN 1979-04-16 00:00:00 TS -15.0000 154.700 main 656 656 O________OO_O_ jtwc_sh SH241979 -15.0000 154.700 -1 -15.0000 154.700 TC -15.0000 154.700 1 -15.0000 154.700 TC 30 23 94
1979093S08156 1979 26 SP EA STAN 1979-04-16 03:00:00 TS -15.0625 156.024 main 722 648 P________PP_P_ SH241979 -15.0576 156.040 -1 -15.0576 156.040 TC -15.0770 155.984 1 -15.0577 156.033 TC 30 27 92
1979093S08156 1979 26 SP EA STAN 1979-04-16 06:00:00 TS -15.1080 157.472 main 643 587 O________OP_O_ jtwc_sh SH241979 -15.1000 157.500 -1 -15.1000 157.500 TC -15.1318 157.389 1 -15.1000 157.500 TC 30 28 92
1979093S08156 1979 26 SP EA STAN 1979-04-16 09:00:00 TS -15.1546 158.895 main 584 522 P________PP_P_ SH241979 -15.1493 158.908 -1 -15.1493 158.908 TC -15.1703 158.850 1 -15.1494 158.915 TC 30 27 92
1979093S08156 1979 26 SP MM STAN 1979-04-16 12:00:00 TS -15.2000 160.300 main 518 493 O________OO_O_ jtwc_sh SH241979 -15.2000 160.300 -1 -15.2000 160.300 TC -15.2000 160.300 1 -15.2000 160.300 TC 30 27 92
1979093S08156 1979 26 SP MM STAN 1979-04-16 15:00:00 TS -15.2495 161.657 main 492 390 P________PP_P_ SH241979 -15.2567 161.665 -1 -15.2567 161.665 TC -15.2282 161.689 1 -15.2564 161.607 TC 30 26 92
1979093S08156 1979 26 SP MM STAN 1979-04-16 18:00:00 TS -15.2889 162.981 main 380 253 O________OP_O_ jtwc_sh SH241979 -15.3000 163.000 -1 -15.3000 163.000 TC -15.2554 163.023 1 -15.3000 162.900 TC 30 25 91
1979093S08156 1979 26 SP MM STAN 1979-04-16 21:00:00 TS -15.3037 164.293 main 242 118 P________PP_P_ SH241979 -15.3115 164.308 -1 -15.3115 164.308 TC -15.2801 164.321 1 -15.3119 164.235 TC 30 25 90
1979093S08156 1979 26 SP MM STAN 1979-04-17 00:00:00 TS -15.3000 165.600 main 107 O________OO_O_ jtwc_sh SH241979 -15.3000 165.600 -1 -15.3000 165.600 TC -15.3000 165.600 6 -15.3000 165.600 TC 30 25 90

Digital Typhoon Data and Search

About IBTrACS Database

This database is a web-friendly format of International Best Track Archive for Climate Stewardship (IBTrACS), a global best track data archive curated by NOAA dating back to 1842.

Updated: 2021-11-26